Time;durP1;ratioP1;P1;durP2;ratioP2;P2;SDS_P1;SDS_P2;PMS_P1;PMS_P2;Temp;Humidity;BMP_temperature;BMP_pressure;BME280_temperature;BME280_humidity;BME280_pressure;Samples;Min_cycle;Max_cycle;Signal;HPM_P1;HPM_P2
2022/05/20 00:01:51;;;;;;;7.67;5.07;;;16.60;87.40;;;;;;5039040;28;20083;-78
2022/05/20 00:04:17;;;;;;;8.27;5.07;;;16.60;87.30;;;;;;5028543;28;20403;-78
2022/05/20 00:06:43;;;;;;;8.73;5.43;;;16.60;87.20;;;;;;5061453;28;20048;-78
2022/05/20 00:09:09;;;;;;;8.15;5.53;;;16.70;87.10;;;;;;5049011;28;20264;-78
2022/05/20 00:11:34;;;;;;;6.90;5.10;;;16.70;87.00;;;;;;5063572;28;20043;-78
2022/05/20 00:14:01;;;;;;;7.18;4.85;;;16.70;86.80;;;;;;5021876;28;20020;-79
2022/05/20 00:16:27;;;;;;;8.47;5.00;;;16.60;86.70;;;;;;5075316;28;20200;-78
2022/05/20 00:18:53;;;;;;;9.30;5.13;;;16.60;86.60;;;;;;5033036;28;20038;-78
2022/05/20 00:21:19;;;;;;;7.50;5.05;;;16.60;86.50;;;;;;5032791;28;20032;-78
2022/05/20 00:23:44;;;;;;;7.90;5.07;;;16.60;86.50;;;;;;5053951;28;20388;-79
2022/05/20 00:26:10;;;;;;;6.27;4.63;;;16.60;86.60;;;;;;5055793;28;20059;-79
2022/05/20 00:28:36;;;;;;;7.10;4.72;;;16.60;86.70;;;;;;5042100;28;20343;-79
2022/05/20 00:31:05;;;;;;;9.07;4.77;;;16.50;86.70;;;;;;5022860;28;20036;-78
2022/05/20 00:33:31;;;;;;;7.75;4.97;;;16.50;86.80;;;;;;5054269;28;20036;-78
2022/05/20 00:35:57;;;;;;;7.43;4.85;;;16.50;87.00;;;;;;5035810;28;20040;-78
2022/05/20 00:38:24;;;;;;;7.43;4.75;;;16.50;87.30;;;;;;5063450;28;20536;-78
2022/05/20 00:40:52;;;;;;;7.68;5.03;;;16.50;87.50;;;;;;5060566;28;20063;-79
2022/05/20 00:43:29;;;;;;;9.33;5.00;;;16.50;87.70;;;;;;5042928;28;20641;-78
2022/05/20 00:46:01;;;;;;;7.38;4.80;;;16.50;87.40;;;;;;5048828;28;20125;-78
2022/05/20 00:48:28;;;;;;;7.18;5.13;;;16.50;87.60;;;;;;5081038;28;20043;-78
2022/05/20 00:51:14;;;;;;;9.27;4.88;;;16.50;87.50;;;;;;5049459;28;20351;-78
2022/05/20 00:54:12;;;;;;;6.88;4.53;;;16.50;87.20;;;;;;5034694;28;20047;-78
2022/05/20 00:57:13;;;;;;;8.53;4.93;;;16.50;86.70;;;;;;5048674;28;20150;-78
2022/05/20 00:59:42;;;;;;;7.90;5.30;;;16.40;86.30;;;;;;5032848;28;20663;-79
2022/05/20 01:02:11;;;;;;;7.57;4.95;;;16.40;86.70;;;;;;5044585;28;20032;-80
2022/05/20 01:04:37;;;;;;;8.00;5.20;;;16.40;86.60;;;;;;5048322;28;20688;-81
2022/05/20 01:07:05;;;;;;;8.07;5.43;;;16.30;86.60;;;;;;5058461;28;20037;-80
2022/05/20 01:09:31;;;;;;;8.10;5.33;;;16.30;86.70;;;;;;5042331;28;20253;-80
2022/05/20 01:11:57;;;;;;;8.82;5.82;;;16.20;86.80;;;;;;5062033;28;20032;-80
2022/05/20 01:14:25;;;;;;;8.40;5.43;;;16.20;86.80;;;;;;5030267;28;20040;-80
2022/05/20 01:16:53;;;;;;;8.30;5.17;;;16.20;86.80;;;;;;5044622;28;20519;-80
2022/05/20 01:19:35;;;;;;;8.40;5.35;;;16.10;86.80;;;;;;5037058;28;20035;-80
2022/05/20 01:22:02;;;;;;;8.95;5.18;;;16.10;86.80;;;;;;5067529;28;20026;-80
2022/05/20 01:24:28;;;;;;;8.15;5.50;;;16.10;86.90;;;;;;5058086;28;20398;-81
2022/05/20 01:26:53;;;;;;;8.30;5.37;;;16.00;86.80;;;;;;5052693;28;20036;-80
2022/05/20 01:29:19;;;;;;;8.20;5.50;;;16.00;86.90;;;;;;5052764;28;20534;-80
2022/05/20 01:31:45;;;;;;;8.40;5.57;;;15.90;86.90;;;;;;5058328;28;20037;-80
2022/05/20 01:34:11;;;;;;;8.47;5.57;;;15.90;87.00;;;;;;5038570;28;20045;-80
2022/05/20 01:36:36;;;;;;;9.90;6.10;;;15.90;87.10;;;;;;5022840;28;20550;-80
2022/05/20 01:39:02;;;;;;;10.80;6.43;;;15.80;87.20;;;;;;5042805;28;20412;-80
2022/05/20 01:41:54;;;;;;;9.27;6.07;;;15.80;87.20;;;;;;5030327;28;20642;-80
2022/05/20 01:44:34;;;;;;;9.93;6.03;;;15.80;87.20;;;;;;5056255;28;20036;-80
2022/05/20 01:47:17;;;;;;;9.27;5.80;;;15.80;87.40;;;;;;5048680;28;20503;-80
2022/05/20 01:49:53;;;;;;;9.70;6.15;;;15.80;87.40;;;;;;5041354;28;20138;-80
2022/05/20 01:52:31;;;;;;;10.45;6.40;;;15.80;87.70;;;;;;5043182;28;20043;-81
2022/05/20 01:55:10;;;;;;;8.55;5.72;;;15.70;87.80;;;;;;5069603;28;20564;-80
2022/05/20 01:57:54;;;;;;;9.33;6.07;;;15.70;87.80;;;;;;5044753;28;20116;-80
2022/05/20 02:00:22;;;;;;;9.27;6.68;;;15.70;87.90;;;;;;5034723;28;20393;-80
2022/05/20 02:03:08;;;;;;;9.57;6.53;;;15.70;88.10;;;;;;5051690;28;20075;-80
2022/05/20 02:05:42;;;;;;;10.93;6.22;;;15.70;88.20;;;;;;5039301;28;20028;-80
2022/05/20 02:08:20;;;;;;;10.68;6.70;;;15.70;88.40;;;;;;5025198;28;20038;-80
2022/05/20 02:10:54;;;;;;;12.70;7.00;;;15.60;88.40;;;;;;5058013;28;20155;-80
2022/05/20 02:13:21;;;;;;;12.15;7.10;;;15.60;88.50;;;;;;5055219;28;20759;-80
2022/05/20 02:16:01;;;;;;;11.07;6.40;;;15.60;88.60;;;;;;5048001;28;20060;-80
2022/05/20 02:18:33;;;;;;;10.32;6.55;;;15.60;88.60;;;;;;5054767;28;20214;-80
2022/05/20 02:21:05;;;;;;;10.60;6.93;;;15.60;88.70;;;;;;5053232;28;20036;-80
2022/05/20 02:23:37;;;;;;;10.87;7.00;;;15.60;88.70;;;;;;5019988;28;20025;-80
2022/05/20 02:26:07;;;;;;;10.52;6.72;;;15.60;88.80;;;;;;5027750;28;20089;-80
2022/05/20 02:28:41;;;;;;;11.57;6.78;;;15.60;89.00;;;;;;5034002;28;20585;-80
2022/05/20 02:31:15;;;;;;;11.95;7.10;;;15.60;89.00;;;;;;5059772;28;20478;-80
2022/05/20 02:33:41;;;;;;;10.98;6.72;;;15.60;89.20;;;;;;5033556;28;20055;-80
2022/05/20 02:36:21;;;;;;;10.53;6.70;;;15.60;89.20;;;;;;5038174;28;20052;-80
2022/05/20 02:38:47;;;;;;;9.43;6.57;;;15.60;89.20;;;;;;5046540;28;20037;-80
2022/05/20 02:41:12;;;;;;;10.17;6.33;;;15.60;89.20;;;;;;5055385;28;20085;-80
2022/05/20 02:43:38;;;;;;;9.57;6.18;;;15.60;89.20;;;;;;5053339;28;20320;-80
2022/05/20 02:46:04;;;;;;;12.03;6.80;;;15.60;89.20;;;;;;5070783;28;20064;-80
2022/05/20 02:48:29;;;;;;;10.45;6.80;;;15.60;89.20;;;;;;5025104;28;20659;-80
2022/05/20 02:50:58;;;;;;;11.43;6.93;;;15.60;89.40;;;;;;5036608;28;20045;-80
2022/05/20 02:53:24;;;;;;;10.98;7.10;;;15.60;89.50;;;;;;5009204;28;20079;-80
2022/05/20 02:55:49;;;;;;;12.10;7.10;;;15.60;89.80;;;;;;5058337;28;20060;-80
2022/05/20 03:04:12;;;;;;;10.88;6.85;;;15.60;90.10;;;;;;5047431;28;20036;-80
2022/05/20 03:06:50;;;;;;;11.80;7.40;;;15.60;90.30;;;;;;5032388;28;20039;-80
2022/05/20 03:09:18;;;;;;;12.33;7.50;;;15.60;90.30;;;;;;5028093;28;20333;-80
2022/05/20 03:11:44;;;;;;;11.30;6.95;;;15.70;90.40;;;;;;5062905;28;20336;-80
2022/05/20 03:14:13;;;;;;;11.07;7.13;;;15.70;90.40;;;;;;5054225;28;20854;-80
2022/05/20 03:16:39;;;;;;;11.63;7.00;;;15.70;90.40;;;;;;5045101;28;20054;-80
2022/05/20 03:19:06;;;;;;;11.73;6.60;;;15.70;90.30;;;;;;5028509;28;20137;-80
2022/05/20 03:21:33;;;;;;;12.02;7.18;;;15.80;90.40;;;;;;5051457;28;20111;-80
2022/05/20 03:23:59;;;;;;;13.10;7.57;;;15.80;90.40;;;;;;5035964;28;20095;-80
2022/05/20 03:26:27;;;;;;;11.73;6.68;;;15.80;90.40;;;;;;5045553;28;20037;-80
2022/05/20 03:28:52;;;;;;;8.82;5.40;;;15.80;90.40;;;;;;5054281;28;20032;-80
2022/05/20 03:31:18;;;;;;;10.93;6.63;;;15.80;90.30;;;;;;5053926;28;20051;-80
2022/05/20 03:33:46;;;;;;;12.45;7.45;;;15.80;90.20;;;;;;5056802;28;20028;-80
2022/05/20 03:36:12;;;;;;;11.45;7.22;;;15.80;90.20;;;;;;5060730;28;20040;-79
2022/05/20 03:38:38;;;;;;;11.10;6.90;;;15.70;90.10;;;;;;5017796;28;20428;-79
2022/05/20 03:41:05;;;;;;;10.90;6.50;;;15.70;90.00;;;;;;5062249;28;20090;-80
2022/05/20 03:43:31;;;;;;;12.32;7.00;;;15.70;90.00;;;;;;5040227;28;20164;-80
2022/05/20 03:45:56;;;;;;;14.13;7.30;;;15.70;89.90;;;;;;5062690;28;20050;-80
2022/05/20 03:48:22;;;;;;;12.23;7.40;;;15.70;89.90;;;;;;5040269;28;20028;-80
2022/05/20 03:50:48;;;;;;;12.00;7.15;;;15.60;89.80;;;;;;5034393;28;20479;-79
2022/05/20 03:53:14;;;;;;;12.73;7.72;;;15.60;89.80;;;;;;5052391;28;20036;-79
2022/05/20 03:55:40;;;;;;;10.97;7.30;;;15.60;89.80;;;;;;5017837;28;20054;-79
2022/05/20 03:58:06;;;;;;;12.30;7.60;;;15.50;89.70;;;;;;5060777;28;20028;-79
2022/05/20 04:01:56;;;;;;;11.73;7.25;;;15.50;89.80;;;;;;5034140;28;20235;-79
2022/05/20 04:03:18;;;;;;;12.05;7.20;;;15.50;89.90;;;;;;5056166;28;20035;-79
2022/05/20 04:05:44;;;;;;;12.50;7.80;;;15.40;90.00;;;;;;5062500;28;20395;-79
2022/05/20 04:08:09;;;;;;;12.03;7.30;;;15.50;90.20;;;;;;5037118;28;20556;-80
2022/05/20 04:10:35;;;;;;;12.95;7.85;;;15.40;90.40;;;;;;5042201;28;20047;-79
2022/05/20 04:13:01;;;;;;;13.93;7.70;;;15.50;90.50;;;;;;5061485;28;20028;-79
2022/05/20 04:15:26;;;;;;;12.50;7.50;;;15.50;90.60;;;;;;5038471;28;20356;-79
2022/05/20 04:17:52;;;;;;;11.77;7.73;;;15.50;90.60;;;;;;5044362;28;20287;-79
2022/05/20 04:20:18;;;;;;;14.70;8.63;;;15.50;90.60;;;;;;5042114;28;20027;-79
2022/05/20 04:22:44;;;;;;;13.20;8.10;;;15.50;90.70;;;;;;5036825;28;20919;-79
2022/05/20 04:25:11;;;;;;;12.13;7.75;;;15.50;90.70;;;;;;5038531;28;20064;-79
2022/05/20 04:27:38;;;;;;;13.00;7.93;;;15.50;90.70;;;;;;5047330;28;20135;-79
2022/05/20 04:30:05;;;;;;;13.43;7.97;;;15.50;90.80;;;;;;5044513;28;20116;-79
2022/05/20 04:32:31;;;;;;;15.30;8.45;;;15.60;90.90;;;;;;5020732;28;20497;-79
2022/05/20 04:34:57;;;;;;;15.35;8.98;;;15.60;91.00;;;;;;5048333;28;20051;-79
2022/05/20 04:37:23;;;;;;;14.90;8.83;;;15.60;91.10;;;;;;5024362;28;20282;-79
2022/05/20 04:39:49;;;;;;;17.33;9.57;;;15.70;91.30;;;;;;5054593;28;20024;-79
2022/05/20 04:47:43;;;;;;;18.15;9.80;;;15.80;91.60;;;;;;5060889;28;20036;-79
2022/05/20 04:50:09;;;;;;;19.10;10.45;;;15.90;91.60;;;;;;5044863;28;20047;-79
2022/05/20 04:52:35;;;;;;;20.55;10.52;;;15.90;91.70;;;;;;5041588;28;20257;-80
2022/05/20 04:55:01;;;;;;;19.47;11.07;;;16.00;91.70;;;;;;5057196;28;20106;-79
2022/05/20 04:57:49;;;;;;;17.42;10.02;;;16.00;91.60;;;;;;5056427;28;20492;-79
2022/05/20 05:00:24;;;;;;;20.80;11.00;;;16.10;91.50;;;;;;5028174;28;20032;-79
2022/05/20 05:02:51;;;;;;;20.60;11.30;;;16.10;91.50;;;;;;5053029;28;20033;-79
2022/05/20 05:05:20;;;;;;;24.02;12.07;;;16.10;91.60;;;;;;5015326;28;20634;-79
2022/05/20 05:07:49;;;;;;;20.02;10.77;;;16.10;91.70;;;;;;5063429;28;20083;-79
2022/05/20 05:10:17;;;;;;;23.65;11.82;;;16.20;91.70;;;;;;5031418;28;20228;-79
2022/05/20 05:12:43;;;;;;;22.55;11.60;;;16.20;91.80;;;;;;5062097;28;20033;-80
2022/05/20 05:15:11;;;;;;;23.97;12.60;;;16.30;91.90;;;;;;5041597;28;20059;-79
2022/05/20 05:20:25;;;;;;;22.38;12.13;;;16.30;92.10;;;;;;5039222;28;20499;-80
2022/05/20 05:22:52;;;;;;;23.02;12.27;;;16.40;92.20;;;;;;5045763;28;20380;-80
2022/05/20 05:25:22;;;;;;;26.20;12.57;;;16.40;92.40;;;;;;5035758;28;20056;-80
2022/05/20 05:27:48;;;;;;;27.00;12.90;;;16.50;92.60;;;;;;5039537;28;20033;-80
2022/05/20 05:30:15;;;;;;;25.88;12.88;;;16.60;93.00;;;;;;5040411;28;20244;-80
2022/05/20 05:32:41;;;;;;;27.05;13.38;;;16.70;93.00;;;;;;5063868;28;20481;-80
2022/05/20 05:35:10;;;;;;;24.48;12.80;;;16.70;92.50;;;;;;5048197;28;20037;-80
2022/05/20 05:37:37;;;;;;;23.30;11.97;;;16.80;92.60;;;;;;5056318;28;20028;-80
2022/05/20 05:40:05;;;;;;;26.30;12.68;;;16.80;92.60;;;;;;5045458;28;20037;-80
2022/05/20 05:42:30;;;;;;;27.30;13.60;;;16.90;92.70;;;;;;5059140;28;20601;-80
2022/05/20 05:44:56;;;;;;;26.13;12.27;;;16.90;92.70;;;;;;5026096;28;20032;-80
2022/05/20 05:47:22;;;;;;;25.60;13.23;;;17.00;92.80;;;;;;5045925;28;20096;-80
2022/05/20 05:49:48;;;;;;;28.33;14.18;;;17.10;92.80;;;;;;5040131;28;20048;-81
2022/05/20 05:52:14;;;;;;;26.65;13.32;;;17.10;92.90;;;;;;5026375;28;20655;-80
2022/05/20 05:54:40;;;;;;;27.05;14.63;;;17.20;93.00;;;;;;5076575;28;20040;-80
2022/05/20 05:57:06;;;;;;;28.17;13.77;;;17.30;93.10;;;;;;5041368;28;20032;-80
2022/05/20 05:59:32;;;;;;;27.70;13.50;;;17.40;93.20;;;;;;5042446;28;20288;-79
2022/05/20 06:01:59;;;;;;;26.45;13.80;;;17.40;93.00;;;;;;5044607;28;20032;-81
2022/05/20 06:04:26;;;;;;;27.67;13.85;;;17.50;93.00;;;;;;5053588;28;20244;-80
2022/05/20 06:06:52;;;;;;;25.00;13.43;;;17.60;93.00;;;;;;5044811;28;20025;-81
2022/05/20 06:09:18;;;;;;;27.23;13.60;;;17.60;93.10;;;;;;5042117;28;20643;-80
2022/05/20 06:11:43;;;;;;;26.40;13.43;;;17.70;93.30;;;;;;5043390;28;20063;-81
2022/05/20 06:14:09;;;;;;;29.15;13.90;;;17.80;93.40;;;;;;5028507;28;20275;-80
2022/05/20 06:16:35;;;;;;;25.97;13.53;;;17.80;93.50;;;;;;5023605;28;20120;-81
2022/05/20 06:19:00;;;;;;;27.93;14.13;;;17.90;93.60;;;;;;5024074;28;20279;-81
2022/05/20 06:21:29;;;;;;;30.20;13.83;;;18.00;93.60;;;;;;5032798;28;20271;-81
2022/05/20 06:23:54;;;;;;;25.15;12.85;;;18.10;93.60;;;;;;5025169;28;20032;-81
2022/05/20 06:26:21;;;;;;;26.63;14.35;;;18.30;93.70;;;;;;5023110;28;20234;-80
2022/05/20 06:28:47;;;;;;;26.27;13.53;;;18.30;93.70;;;;;;5028102;28;20685;-81
2022/05/20 06:31:13;;;;;;;25.13;13.70;;;18.40;93.90;;;;;;5014994;28;20056;-80
2022/05/20 06:33:39;;;;;;;25.63;13.45;;;18.60;93.90;;;;;;5039260;28;20036;-81
2022/05/20 06:41:34;;;;;;;23.83;13.18;;;19.00;94.20;;;;;;5033246;28;20029;-79
2022/05/20 06:44:01;;;;;;;25.30;13.53;;;19.10;94.30;;;;;;5029264;28;20113;-80
2022/05/20 06:46:27;;;;;;;23.10;12.90;;;19.20;94.40;;;;;;5017862;28;20318;-79
2022/05/20 06:48:55;;;;;;;23.80;13.98;;;19.40;94.30;;;;;;5037584;28;20037;-81
2022/05/20 06:51:24;;;;;;;24.58;14.23;;;19.50;94.00;;;;;;5020129;28;20636;-79
2022/05/20 06:53:54;;;;;;;24.25;13.75;;;19.60;93.80;;;;;;5023791;28;20087;-80
2022/05/20 06:56:22;;;;;;;21.73;12.53;;;19.70;93.80;;;;;;5037276;28;20040;-80
2022/05/20 06:58:48;;;;;;;23.73;13.35;;;19.80;93.70;;;;;;5024882;28;20158;-80
2022/05/20 07:01:14;;;;;;;24.17;12.80;;;19.90;93.70;;;;;;5011156;28;20127;-80
2022/05/20 07:03:40;;;;;;;24.10;13.25;;;19.90;93.80;;;;;;5035674;28;20661;-79
2022/05/20 07:06:07;;;;;;;22.60;12.82;;;20.00;93.90;;;;;;5025043;28;20070;-79
2022/05/20 07:08:34;;;;;;;21.60;12.93;;;20.20;93.90;;;;;;5023616;28;23118;-79
2022/05/20 07:11:01;;;;;;;22.13;12.80;;;20.30;93.70;;;;;;5034086;28;20037;-79
2022/05/20 07:13:29;;;;;;;21.73;12.40;;;20.40;93.70;;;;;;5040089;28;20261;-80
2022/05/20 07:15:55;;;;;;;21.88;12.30;;;20.50;93.90;;;;;;5024306;28;20491;-79
2022/05/20 07:18:20;;;;;;;22.30;12.33;;;20.60;93.90;;;;;;5046618;28;20260;-80
2022/05/20 07:20:46;;;;;;;22.83;12.95;;;20.70;93.80;;;;;;5037467;28;20031;-79
2022/05/20 07:23:12;;;;;;;21.60;12.10;;;20.80;93.60;;;;;;5051488;28;20098;-79
2022/05/20 07:25:38;;;;;;;22.88;12.30;;;20.90;93.50;;;;;;5054452;28;20125;-80
2022/05/20 07:28:05;;;;;;;20.77;12.43;;;21.00;93.50;;;;;;5065264;28;20036;-79
2022/05/20 07:30:31;;;;;;;19.43;11.70;;;21.10;93.70;;;;;;5024493;28;20534;-79
2022/05/20 07:32:57;;;;;;;21.15;12.90;;;21.30;93.80;;;;;;5051489;28;20720;-80
2022/05/20 07:35:22;;;;;;;20.17;11.93;;;21.40;93.60;;;;;;5039573;28;20665;-79
2022/05/20 07:37:50;;;;;;;19.47;12.33;;;21.50;93.60;;;;;;5038090;28;20682;-80
2022/05/20 07:40:17;;;;;;;18.52;11.18;;;21.60;93.40;;;;;;5020468;28;20300;-80
2022/05/20 07:42:43;;;;;;;20.15;11.93;;;21.80;93.40;;;;;;5041635;28;20036;-79
2022/05/20 07:45:09;;;;;;;17.60;11.47;;;21.90;93.30;;;;;;5033654;28;20035;-79
2022/05/20 07:47:35;;;;;;;18.23;11.65;;;22.00;93.20;;;;;;5008114;28;20032;-79
2022/05/20 07:50:01;;;;;;;18.20;11.37;;;22.10;92.90;;;;;;5066659;28;20032;-79
2022/05/20 07:55:11;;;;;;;18.27;10.90;;;22.20;92.30;;;;;;5026856;28;20101;-81
2022/05/20 07:57:39;;;;;;;19.95;11.90;;;22.30;92.10;;;;;;5057660;28;20029;-80
2022/05/20 08:00:06;;;;;;;15.77;10.17;;;22.30;91.80;;;;;;5052630;28;20032;-79
2022/05/20 08:02:33;;;;;;;19.67;11.45;;;22.30;92.00;;;;;;5004675;28;20750;-79
2022/05/20 08:05:00;;;;;;;19.08;11.50;;;22.30;91.80;;;;;;5033573;28;20067;-79
2022/05/20 08:07:26;;;;;;;18.30;11.48;;;22.30;91.70;;;;;;5055087;28;20255;-79
2022/05/20 08:09:52;;;;;;;16.37;11.10;;;22.30;91.70;;;;;;5037425;28;20091;-80
2022/05/20 08:12:17;;;;;;;19.10;11.45;;;22.30;91.70;;;;;;5012830;28;20036;-79
2022/05/20 08:14:43;;;;;;;19.57;12.30;;;22.30;91.80;;;;;;5056028;28;20055;-80
2022/05/20 08:17:09;;;;;;;18.38;11.43;;;22.30;92.30;;;;;;5020781;28;20068;-79
2022/05/20 08:19:34;;;;;;;17.20;11.10;;;22.40;92.70;;;;;;5029221;28;20020;-79
2022/05/20 08:22:01;;;;;;;18.10;10.82;;;22.60;93.10;;;;;;5054121;28;20025;-80
2022/05/20 08:24:26;;;;;;;17.52;11.45;;;22.70;93.20;;;;;;5043455;28;20111;-80
2022/05/20 08:26:53;;;;;;;19.20;11.33;;;22.90;93.40;;;;;;5040058;28;20036;-79
2022/05/20 08:29:19;;;;;;;17.55;12.27;;;23.10;93.40;;;;;;5056901;28;20563;-79
2022/05/20 08:31:45;;;;;;;18.17;12.23;;;23.30;93.60;;;;;;5071912;28;20111;-79
2022/05/20 08:34:11;;;;;;;17.50;11.55;;;23.50;93.60;;;;;;5028711;28;20032;-80
2022/05/20 08:36:38;;;;;;;16.52;11.35;;;23.70;93.40;;;;;;5037831;28;20094;-80
2022/05/20 08:39:05;;;;;;;16.02;11.13;;;23.90;93.40;;;;;;5043778;28;20025;-80
2022/05/20 08:41:58;;;;;;;15.85;10.73;;;24.10;93.10;;;;;;5040045;28;20702;-79
2022/05/20 08:44:24;;;;;;;16.30;10.70;;;24.40;91.80;;;;;;5033587;28;20266;-79
2022/05/20 08:47:04;;;;;;;15.80;10.55;;;24.60;92.80;;;;;;5037757;28;20438;-83
2022/05/20 08:49:30;;;;;;;16.70;10.25;;;24.70;92.40;;;;;;5031627;28;20360;-79
2022/05/20 08:51:56;;;;;;;13.97;9.73;;;24.90;92.20;;;;;;5054925;28;20504;-80
2022/05/20 08:54:21;;;;;;;18.10;10.98;;;25.00;91.90;;;;;;5036047;28;20380;-79
2022/05/20 08:56:49;;;;;;;15.00;10.17;;;25.10;91.60;;;;;;5046807;28;20124;-79
2022/05/20 08:59:19;;;;;;;14.63;9.63;;;25.20;91.30;;;;;;5022255;28;20031;-81
2022/05/20 09:01:48;;;;;;;15.38;10.48;;;25.30;90.80;;;;;;5055262;28;20031;-80
2022/05/20 09:04:15;;;;;;;14.45;10.60;;;25.40;91.00;;;;;;5006311;28;21964;-80
2022/05/20 09:07:02;;;;;;;14.63;10.00;;;25.40;90.90;;;;;;5035455;28;20036;-79
2022/05/20 09:09:43;;;;;;;14.63;9.83;;;25.50;88.60;;;;;;5039204;28;20252;-80
2022/05/20 09:12:09;;;;;;;12.90;9.48;;;25.50;87.90;;;;;;5049268;28;20043;-78
2022/05/20 09:17:22;;;;;;;15.75;10.27;;;25.40;90.00;;;;;;5033279;28;20234;-80
2022/05/20 09:19:57;;;;;;;14.05;9.93;;;25.40;89.30;;;;;;5035725;28;20461;-80
2022/05/20 09:22:39;;;;;;;15.37;9.87;;;25.30;87.40;;;;;;5053801;28;20494;-80
2022/05/20 09:25:10;;;;;;;17.05;10.43;;;25.20;87.50;;;;;;5052054;28;20056;-80
2022/05/20 09:27:39;;;;;;;15.05;9.77;;;25.10;86.90;;;;;;5040563;28;20372;-80
2022/05/20 09:30:14;;;;;;;12.55;8.82;;;25.00;89.00;;;;;;5015476;28;20048;-79
2022/05/20 09:32:50;;;;;;;14.95;10.30;;;25.00;87.20;;;;;;5038009;28;20037;-80
2022/05/20 09:35:19;;;;;;;14.07;9.80;;;24.80;88.70;;;;;;4999300;28;21237;-79
2022/05/20 09:37:47;;;;;;;14.48;9.73;;;24.80;88.60;;;;;;5054914;28;21610;-82
2022/05/20 09:40:15;;;;;;;14.48;9.50;;;24.70;89.20;;;;;;5032208;28;20604;-80
2022/05/20 09:42:58;;;;;;;14.20;9.95;;;24.60;88.60;;;;;;5039116;28;20107;-80
2022/05/20 09:45:24;;;;;;;13.95;9.65;;;24.50;86.10;;;;;;5038932;28;20715;-79
2022/05/20 09:47:53;;;;;;;13.60;9.63;;;24.50;89.80;;;;;;5033208;28;20040;-79
2022/05/20 09:50:34;;;;;;;12.63;9.30;;;24.50;89.20;;;;;;5031795;28;20032;-79
2022/05/20 09:53:07;;;;;;;14.25;9.23;;;24.40;87.30;;;;;;5054905;28;20029;-79
2022/05/20 09:55:45;;;;;;;14.90;10.07;;;24.30;89.70;;;;;;5036566;28;20040;-80
2022/05/20 09:58:27;;;;;;;12.77;9.37;;;24.30;87.30;;;;;;5029235;28;20087;-79
2022/05/20 10:01:06;;;;;;;13.40;9.40;;;24.20;88.10;;;;;;5025984;28;20057;-79
2022/05/20 10:03:34;;;;;;;13.73;9.68;;;24.20;87.50;;;;;;5028734;28;20126;-80
2022/05/20 10:06:37;;;;;;;14.00;9.57;;;24.20;90.10;;;;;;5026840;28;20432;-79
2022/05/20 10:09:25;;;;;;;13.50;8.98;;;24.10;87.20;;;;;;5049161;28;20170;-81
2022/05/20 10:11:54;;;;;;;14.43;9.10;;;24.10;87.10;;;;;;5024800;28;20076;-79
2022/05/20 10:14:24;;;;;;;15.23;9.02;;;24.10;90.20;;;;;;5034752;28;20524;-80
2022/05/20 10:17:27;;;;;;;15.55;9.65;;;24.10;90.00;;;;;;5024786;28;20045;-79
2022/05/20 10:20:06;;;;;;;12.85;8.75;;;24.10;87.70;;;;;;5037404;28;20029;-78
2022/05/20 10:23:05;;;;;;;13.13;8.45;;;24.10;89.20;;;;;;5050074;28;20625;-79
2022/05/20 10:25:50;;;;;;;12.70;8.37;;;24.20;88.40;;;;;;5030410;28;20037;-79
2022/05/20 10:33:53;;;;;;;11.98;7.93;;;24.40;90.40;;;;;;5042236;28;20037;-80
2022/05/20 10:36:24;;;;;;;13.80;7.83;;;24.50;90.80;;;;;;5035205;28;20231;-80
2022/05/20 10:38:59;;;;;;;12.63;8.50;;;24.50;90.70;;;;;;5044209;28;20024;-79
2022/05/20 10:41:33;;;;;;;12.50;8.30;;;24.50;88.90;;;;;;5039562;28;20587;-81
2022/05/20 10:50:34;;;;;;;10.40;7.50;;;24.70;87.90;;;;;;5030076;28;20150;-79
2022/05/20 10:53:34;;;;;;;11.52;8.15;;;24.80;90.50;;;;;;5041331;28;20094;-79
2022/05/20 10:56:21;;;;;;;11.10;7.55;;;24.90;87.40;;;;;;5044461;28;20037;-79
2022/05/20 10:58:53;;;;;;;12.02;7.80;;;24.90;89.80;;;;;;5045833;28;20481;-79
2022/05/20 11:01:32;;;;;;;12.20;8.52;;;24.90;88.60;;;;;;5038289;28;20037;-79
2022/05/20 11:04:12;;;;;;;14.53;8.20;;;24.90;87.10;;;;;;5034390;28;20037;-80
2022/05/20 11:06:50;;;;;;;12.50;8.02;;;25.00;86.80;;;;;;5043504;28;20049;-79
2022/05/20 11:09:45;;;;;;;12.50;8.85;;;24.90;86.30;;;;;;5022847;28;20598;-79
2022/05/20 11:12:39;;;;;;;13.45;8.85;;;24.80;86.00;;;;;;5029533;28;20082;-82
2022/05/20 11:15:24;;;;;;;14.13;8.93;;;24.70;82.70;;;;;;5026657;28;20047;-80
2022/05/20 11:18:11;;;;;;;11.40;7.93;;;24.50;84.30;;;;;;5049313;28;20033;-79
2022/05/20 11:20:58;;;;;;;12.18;8.40;;;24.30;84.50;;;;;;5068387;28;20028;-80
2022/05/20 11:23:56;;;;;;;14.00;8.80;;;24.20;84.90;;;;;;5054859;28;20055;-81
2022/05/20 11:26:56;;;;;;;14.73;9.32;;;24.00;84.70;;;;;;5031633;28;20598;-81
2022/05/20 11:29:42;;;;;;;13.63;8.45;;;23.80;84.00;;;;;;5048036;28;20157;-82
2022/05/20 11:32:11;;;;;;;14.33;9.27;;;23.50;84.50;;;;;;5034144;28;20425;-84
2022/05/20 11:35:01;;;;;;;16.35;9.85;;;23.20;85.20;;;;;;5030370;28;20034;-82
2022/05/20 11:37:51;;;;;;;16.52;10.25;;;23.00;85.60;;;;;;5058415;28;20140;-82
2022/05/20 11:40:41;;;;;;;15.25;9.52;;;22.70;86.30;;;;;;5049921;28;20149;-81
2022/05/20 11:43:45;;;;;;;17.08;10.43;;;22.60;87.80;;;;;;5043792;28;20044;-82
2022/05/20 11:46:20;;;;;;;17.63;9.90;;;22.40;88.30;;;;;;5052210;28;20043;-82
2022/05/20 11:48:54;;;;;;;17.60;10.45;;;22.20;89.30;;;;;;5044169;28;20487;-83
2022/05/20 11:51:49;;;;;;;19.13;11.07;;;22.10;90.10;;;;;;5036556;28;20261;-83
2022/05/20 11:54:46;;;;;;;17.30;10.32;;;22.00;90.40;;;;;;5036668;28;20122;-82
2022/05/20 11:57:17;;;;;;;16.63;10.63;;;21.90;90.80;;;;;;5013011;28;20477;-82
2022/05/20 12:00:17;;;;;;;17.53;10.83;;;21.90;91.20;;;;;;5039695;28;20046;-83
2022/05/20 12:02:55;;;;;;;18.90;11.35;;;21.90;91.50;;;;;;5034890;28;20025;-83
2022/05/20 12:05:25;;;;;;;20.98;12.05;;;22.00;91.80;;;;;;5041077;28;20115;-82
2022/05/20 12:07:51;;;;;;;17.80;11.15;;;22.00;92.10;;;;;;5043391;28;20552;-82
2022/05/20 12:10:36;;;;;;;20.15;11.30;;;22.00;92.40;;;;;;5051422;28;20336;-83
2022/05/20 12:13:08;;;;;;;20.07;11.40;;;22.20;92.80;;;;;;5037046;28;20032;-82
2022/05/20 12:15:41;;;;;;;17.90;11.32;;;22.20;92.80;;;;;;5059108;28;20511;-81
2022/05/20 12:24:47;;;;;;;16.77;9.57;;;22.60;93.40;;;;;;5055979;28;20367;-81
2022/05/20 12:27:38;;;;;;;15.27;9.73;;;22.70;93.30;;;;;;5035420;28;20040;-82
2022/05/20 12:30:27;;;;;;;13.32;8.50;;;22.80;93.40;;;;;;5008263;28;20603;-81
2022/05/20 12:32:53;;;;;;;12.95;7.65;;;23.00;93.90;;;;;;5055634;28;20049;-82
2022/05/20 12:35:26;;;;;;;8.95;6.50;;;23.10;94.10;;;;;;5046157;28;20043;-83
2022/05/20 12:37:56;;;;;;;8.68;5.90;;;23.30;93.30;;;;;;5049031;28;20089;-84
2022/05/20 12:40:28;;;;;;;7.93;5.60;;;23.30;93.40;;;;;;5054417;28;20645;-83
2022/05/20 12:43:02;;;;;;;8.30;4.90;;;23.40;92.60;;;;;;5018138;28;20031;-83
2022/05/20 12:45:33;;;;;;;5.82;4.15;;;23.50;91.70;;;;;;5059329;28;20102;-82
2022/05/20 12:47:59;;;;;;;4.43;3.03;;;23.40;91.90;;;;;;5036706;28;20032;-83
2022/05/20 12:50:27;;;;;;;3.60;2.55;;;23.40;91.80;;;;;;5043328;28;20044;-82
2022/05/20 12:53:07;;;;;;;3.00;2.40;;;23.30;91.60;;;;;;5039345;28;20043;-82
2022/05/20 12:55:39;;;;;;;3.50;2.20;;;23.30;90.90;;;;;;5038075;28;20086;-81
2022/05/20 12:58:08;;;;;;;4.28;2.13;;;23.20;91.10;;;;;;5039491;28;20386;-82
2022/05/20 13:00:41;;;;;;;2.72;1.70;;;23.10;91.20;;;;;;5025282;28;20494;-84
2022/05/20 13:03:15;;;;;;;2.90;1.30;;;23.10;90.70;;;;;;5035419;28;20021;-83
2022/05/20 13:05:50;;;;;;;1.87;1.37;;;23.10;90.40;;;;;;5026217;28;20045;-82
2022/05/20 13:08:20;;;;;;;2.53;1.20;;;22.90;90.00;;;;;;5036598;28;20352;-83
2022/05/20 13:10:46;;;;;;;2.97;1.30;;;22.80;90.10;;;;;;5036068;28;20047;-83
2022/05/20 13:13:16;;;;;;;2.00;1.30;;;22.70;90.30;;;;;;5036562;28;20932;-83
2022/05/20 13:16:10;;;;;;;1.90;1.40;;;22.50;90.20;;;;;;5020555;28;20033;-84
2022/05/20 13:18:39;;;;;;;3.15;1.40;;;22.40;90.00;;;;;;5039174;28;20140;-83
2022/05/20 13:21:25;;;;;;;2.40;1.58;;;22.20;90.60;;;;;;5053318;28;20415;-83
2022/05/20 13:23:55;;;;;;;2.08;1.73;;;22.20;90.60;;;;;;5045755;28;20037;-83
2022/05/20 13:26:28;;;;;;;2.53;1.70;;;22.00;91.10;;;;;;5034237;28;20028;-82
2022/05/20 13:29:08;;;;;;;4.40;1.85;;;22.00;91.30;;;;;;5055418;28;20101;-83
2022/05/20 13:31:34;;;;;;;2.85;1.90;;;21.90;91.20;;;;;;4996165;28;20331;-83
2022/05/20 13:34:01;;;;;;;2.95;2.05;;;21.90;92.10;;;;;;5067405;28;20324;-83
2022/05/20 13:36:34;;;;;;;3.17;1.70;;;21.90;92.20;;;;;;5037035;28;20299;-82
2022/05/20 13:39:04;;;;;;;2.92;2.00;;;21.90;92.10;;;;;;5043543;28;20051;-82
2022/05/20 13:41:32;;;;;;;3.00;1.98;;;21.90;92.30;;;;;;5061363;28;20123;-82